createdAt,value
2018-12-07T00:01:42.771Z,11.77
2018-12-07T00:04:11.338Z,13.03
2018-12-07T00:06:40.050Z,11.17
2018-12-07T00:09:09.016Z,8.43
2018-12-07T00:11:37.295Z,8.30
2018-12-07T00:14:05.602Z,13.53
2018-12-07T00:16:34.486Z,11.43
2018-12-07T00:19:02.838Z,9.93
2018-12-07T00:21:31.168Z,5.53
2018-12-07T00:23:59.519Z,8.80
2018-12-07T00:26:27.801Z,9.10
2018-12-07T00:28:56.881Z,13.00
2018-12-07T00:31:25.235Z,9.90
2018-12-07T00:36:28.209Z,9.33
2018-12-07T00:38:56.820Z,6.13
2018-12-07T00:41:25.331Z,7.27
2018-12-07T00:43:53.884Z,11.40
2018-12-07T00:46:22.457Z,9.10
2018-12-07T00:48:50.788Z,5.70
2018-12-07T00:51:19.538Z,9.30
2018-12-07T00:53:47.822Z,7.07
2018-12-07T00:56:16.462Z,5.77
2018-12-07T00:58:44.779Z,5.20
2018-12-07T01:01:13.075Z,5.80
2018-12-07T01:03:41.339Z,7.70
2018-12-07T01:06:09.664Z,8.60
2018-12-07T01:08:38.222Z,8.73
2018-12-07T01:11:06.536Z,8.27
2018-12-07T01:13:36.599Z,8.10
2018-12-07T01:16:06.045Z,7.90
2018-12-07T01:18:35.617Z,7.43
2018-12-07T01:21:03.923Z,7.27
2018-12-07T01:23:32.436Z,9.77
2018-12-07T01:26:00.703Z,9.87
2018-12-07T01:28:28.984Z,7.73
2018-12-07T01:30:57.337Z,9.53
2018-12-07T01:33:28.745Z,10.30
2018-12-07T01:35:57.068Z,10.67
2018-12-07T01:38:26.112Z,10.10
2018-12-07T01:40:54.744Z,13.03
2018-12-07T01:43:24.333Z,12.73
2018-12-07T01:45:52.654Z,9.90
2018-12-07T01:48:21.213Z,13.27
2018-12-07T01:50:49.539Z,12.83
2018-12-07T01:53:18.025Z,12.53
2018-12-07T01:55:47.516Z,11.60
2018-12-07T01:58:16.546Z,14.03
2018-12-07T02:00:45.158Z,12.50
2018-12-07T02:03:13.885Z,16.10
2018-12-07T02:11:29.142Z,14.90
2018-12-07T02:13:57.455Z,11.67
2018-12-07T02:16:26.049Z,15.10
2018-12-07T02:18:54.361Z,17.90
2018-12-07T02:21:22.977Z,15.37
2018-12-07T02:23:51.567Z,14.77
2018-12-07T02:26:20.511Z,14.00
2018-12-07T02:28:52.112Z,17.27
2018-12-07T02:31:20.640Z,15.70
2018-12-07T02:33:49.539Z,10.10
2018-12-07T02:36:18.154Z,11.40
2018-12-07T02:38:46.494Z,12.87
2018-12-07T02:41:14.783Z,14.33
2018-12-07T02:43:43.937Z,10.33
2018-12-07T02:46:12.542Z,13.37
2018-12-07T02:48:41.192Z,8.00
2018-12-07T02:51:09.756Z,11.50
2018-12-07T02:53:38.086Z,13.60
2018-12-07T02:56:06.409Z,7.77
2018-12-07T02:58:34.716Z,9.23
2018-12-07T03:01:03.049Z,9.93
2018-12-07T03:03:31.369Z,11.13
2018-12-07T03:05:59.632Z,7.33
2018-12-07T03:08:28.174Z,10.47
2018-12-07T03:10:56.543Z,10.17
2018-12-07T03:13:25.462Z,11.43
2018-12-07T03:21:24.819Z,8.07
2018-12-07T03:23:57.874Z,10.40
2018-12-07T03:26:26.168Z,8.97
2018-12-07T03:28:54.477Z,9.53
2018-12-07T03:31:23.121Z,8.73
2018-12-07T03:33:51.672Z,8.00
2018-12-07T03:36:20.416Z,10.17
2018-12-07T03:42:13.152Z,10.40
2018-12-07T03:44:41.761Z,11.70
2018-12-07T03:47:10.069Z,11.93
2018-12-07T03:49:38.428Z,9.83
2018-12-07T03:52:07.206Z,8.47
2018-12-07T03:54:35.550Z,9.77
2018-12-07T03:57:03.982Z,8.93
2018-12-07T03:59:32.493Z,7.63
2018-12-07T04:02:06.900Z,6.87
2018-12-07T04:04:35.240Z,6.17
2018-12-07T04:07:05.144Z,4.77
2018-12-07T04:09:33.493Z,5.67
2018-12-07T04:12:11.660Z,6.90
2018-12-07T04:14:42.996Z,4.97
2018-12-07T04:17:11.682Z,5.60
2018-12-07T04:19:39.993Z,4.93
2018-12-07T04:25:01.206Z,7.87
2018-12-07T04:27:38.907Z,5.23
2018-12-07T04:30:25.779Z,6.47
2018-12-07T04:32:54.351Z,6.90
2018-12-07T04:35:23.198Z,9.33
2018-12-07T04:37:51.752Z,8.83
2018-12-07T04:40:20.630Z,8.37
2018-12-07T04:42:49.724Z,10.40
2018-12-07T04:45:18.710Z,10.33
2018-12-07T04:47:47.327Z,11.37
2018-12-07T04:50:15.672Z,12.80
2018-12-07T04:52:44.409Z,11.13
2018-12-07T04:55:13.189Z,10.63
2018-12-07T04:57:41.768Z,10.30
2018-12-07T05:00:13.559Z,9.80
2018-12-07T05:02:41.874Z,8.03
2018-12-07T05:05:11.276Z,6.50
2018-12-07T05:07:40.471Z,8.70
2018-12-07T05:10:08.801Z,9.10
2018-12-07T05:12:37.660Z,6.73
2018-12-07T05:15:07.096Z,6.63
2018-12-07T05:17:35.449Z,6.40
2018-12-07T05:20:14.135Z,6.00
2018-12-07T05:22:42.467Z,7.00
2018-12-07T05:25:10.782Z,7.23
2018-12-07T05:27:39.083Z,5.70
2018-12-07T05:30:08.338Z,5.73
2018-12-07T05:32:37.823Z,7.93
2018-12-07T05:35:06.581Z,5.80
2018-12-07T05:37:35.186Z,5.50
2018-12-07T05:40:04.432Z,5.10
2018-12-07T05:42:32.718Z,4.67
2018-12-07T05:45:01.870Z,6.87
2018-12-07T05:47:30.765Z,5.17
2018-12-07T05:50:02.196Z,6.77
2018-12-07T05:52:31.237Z,7.07
2018-12-07T05:55:00.448Z,6.67
2018-12-07T05:57:28.795Z,7.87
2018-12-07T05:59:57.093Z,7.47
2018-12-07T06:02:26.532Z,6.90
2018-12-07T06:04:55.182Z,7.00
2018-12-07T06:07:23.473Z,6.23
2018-12-07T06:09:52.535Z,6.23
2018-12-07T06:12:28.074Z,7.33
2018-12-07T06:14:56.848Z,6.30
2018-12-07T06:17:25.151Z,8.33
2018-12-07T06:19:54.255Z,6.60
2018-12-07T06:28:09.252Z,6.90
2018-12-07T06:30:37.548Z,5.60
2018-12-07T06:33:09.821Z,4.70
2018-12-07T06:35:38.183Z,4.37
2018-12-07T06:38:07.508Z,6.73
2018-12-07T06:40:45.108Z,6.43
2018-12-07T06:43:13.415Z,5.37
2018-12-07T06:45:42.517Z,5.87
2018-12-07T06:48:20.365Z,6.80
2018-12-07T06:50:48.684Z,6.90
2018-12-07T06:53:17.664Z,7.53
2018-12-07T06:55:46.318Z,6.67
2018-12-07T06:58:14.874Z,7.27
2018-12-07T07:00:43.361Z,9.80
2018-12-07T07:03:12.013Z,8.57
2018-12-07T07:05:42.039Z,8.37
2018-12-07T07:08:10.451Z,8.47
2018-12-07T07:10:40.541Z,7.97
2018-12-07T07:13:09.533Z,8.60
2018-12-07T07:15:37.865Z,7.73
2018-12-07T07:18:07.130Z,7.50
2018-12-07T07:20:36.323Z,7.53
2018-12-07T07:23:05.489Z,5.40
2018-12-07T07:25:34.401Z,7.60
2018-12-07T07:28:02.979Z,6.00
2018-12-07T07:30:31.679Z,7.93
2018-12-07T07:32:59.961Z,6.93
2018-12-07T07:35:28.284Z,6.20
2018-12-07T07:37:56.646Z,7.80
2018-12-07T07:40:24.986Z,7.87
2018-12-07T07:42:53.339Z,9.43
2018-12-07T07:45:21.884Z,10.10
2018-12-07T07:47:54.390Z,9.77
2018-12-07T07:50:23.019Z,10.77
2018-12-07T07:52:51.349Z,10.87
2018-12-07T07:55:19.699Z,11.13
2018-12-07T07:57:48.081Z,12.63
2018-12-07T08:00:19.873Z,12.10
2018-12-07T08:02:48.519Z,13.10
2018-12-07T08:05:17.171Z,12.40
2018-12-07T08:07:45.515Z,13.83
2018-12-07T08:10:14.316Z,15.07
2018-12-07T08:12:42.740Z,14.77
2018-12-07T08:15:11.523Z,14.73
2018-12-07T08:17:39.831Z,16.00
2018-12-07T08:20:08.533Z,13.10
2018-12-07T08:22:36.878Z,17.30
2018-12-07T08:25:06.654Z,12.83
2018-12-07T08:27:44.487Z,16.47
2018-12-07T08:30:13.235Z,12.23
2018-12-07T08:32:42.272Z,14.00
2018-12-07T08:35:11.240Z,15.27
2018-12-07T08:37:39.959Z,11.20
2018-12-07T08:40:10.370Z,12.50
2018-12-07T08:42:38.738Z,15.17
2018-12-07T08:45:08.539Z,12.60
2018-12-07T08:47:37.530Z,9.90
2018-12-07T08:50:08.180Z,16.50
2018-12-07T08:58:24.542Z,15.27
2018-12-07T09:00:52.848Z,12.17
2018-12-07T09:03:21.400Z,13.73
2018-12-07T09:05:49.722Z,12.80
2018-12-07T09:08:20.300Z,13.63
2018-12-07T09:10:49.612Z,13.60
2018-12-07T09:13:18.165Z,13.33
2018-12-07T09:15:49.985Z,12.43
2018-12-07T09:18:18.340Z,15.80
2018-12-07T09:20:53.779Z,13.93
2018-12-07T09:23:17.141Z,13.53
2018-12-07T09:25:45.446Z,15.17
2018-12-07T09:28:14.065Z,15.80
2018-12-07T09:30:42.939Z,12.63
2018-12-07T09:33:12.260Z,13.73
2018-12-07T09:35:40.574Z,11.87
2018-12-07T09:38:13.068Z,13.53
2018-12-07T09:40:40.592Z,12.03
2018-12-07T09:43:08.916Z,10.43
2018-12-07T09:45:37.494Z,11.17
2018-12-07T09:48:06.443Z,12.57
2018-12-07T09:50:35.322Z,13.10
2018-12-07T09:53:03.663Z,13.13
2018-12-07T09:55:32.689Z,13.43
2018-12-07T09:58:01.313Z,11.50
2018-12-07T10:00:29.653Z,13.13
2018-12-07T10:02:58.003Z,9.23
2018-12-07T10:05:26.641Z,9.67
2018-12-07T10:07:55.348Z,10.27
2018-12-07T10:10:23.708Z,9.90
2018-12-07T10:13:07.772Z,8.00
2018-12-07T10:15:34.900Z,9.23
2018-12-07T10:18:03.888Z,9.77
2018-12-07T10:20:32.462Z,9.10
2018-12-07T10:23:01.031Z,10.30
2018-12-07T10:25:29.349Z,9.50
2018-12-07T10:27:57.940Z,8.93
2018-12-07T10:30:27.415Z,9.75
2018-12-07T10:32:55.743Z,8.60
2018-12-07T10:35:24.056Z,9.37
2018-12-07T10:37:52.391Z,7.93
2018-12-07T10:40:24.105Z,9.40
2018-12-07T10:42:52.448Z,7.03
2018-12-07T10:45:21.385Z,8.57
2018-12-07T10:47:50.689Z,8.50
2018-12-07T10:50:19.827Z,9.40
2018-12-07T10:52:48.367Z,10.27
2018-12-07T10:55:17.252Z,9.33
2018-12-07T10:57:45.619Z,11.63
2018-12-07T11:00:22.909Z,11.03
2018-12-07T11:02:55.952Z,10.57
2018-12-07T11:05:29.549Z,11.07
2018-12-07T11:08:03.807Z,10.30
2018-12-07T11:10:37.564Z,11.40
2018-12-07T11:14:10.855Z,10.60
2018-12-07T11:16:44.584Z,11.57
2018-12-07T11:19:18.214Z,10.97
2018-12-07T11:21:53.025Z,10.93
2018-12-07T11:24:27.037Z,10.43
2018-12-07T11:27:00.703Z,11.33
2018-12-07T11:29:34.291Z,13.17
2018-12-07T11:32:08.140Z,9.80
2018-12-07T11:34:41.001Z,9.23
2018-12-07T11:37:09.969Z,10.10
2018-12-07T11:39:38.283Z,9.17
2018-12-07T11:42:06.603Z,9.93
2018-12-07T11:44:36.684Z,11.30
2018-12-07T11:47:06.244Z,9.87
2018-12-07T11:49:35.311Z,9.80
2018-12-07T11:52:03.916Z,8.27
2018-12-07T11:54:32.683Z,8.93
2018-12-07T11:57:01.039Z,7.80
2018-12-07T11:59:30.428Z,9.63
2018-12-07T12:02:01.835Z,8.53
2018-12-07T12:04:30.710Z,8.23
2018-12-07T12:06:59.307Z,8.50
2018-12-07T12:09:27.861Z,7.10
2018-12-07T12:11:56.463Z,8.97
2018-12-07T12:14:24.788Z,8.20
2018-12-07T12:16:53.406Z,7.20
2018-12-07T12:19:21.722Z,6.17
2018-12-07T12:24:24.238Z,5.40
2018-12-07T12:26:52.567Z,5.27
2018-12-07T12:29:20.895Z,6.60
2018-12-07T12:31:49.449Z,5.30
2018-12-07T12:36:52.952Z,4.43
2018-12-07T12:39:21.273Z,5.23
2018-12-07T12:41:49.566Z,4.77
2018-12-07T12:44:17.873Z,4.73
2018-12-07T12:46:46.238Z,5.10
2018-12-07T12:49:15.055Z,3.53
2018-12-07T12:51:43.399Z,4.30
2018-12-07T12:54:12.331Z,3.97
2018-12-07T12:56:41.417Z,4.13
2018-12-07T12:59:10.038Z,4.43
2018-12-07T13:01:40.614Z,4.53
2018-12-07T13:04:09.539Z,4.87
2018-12-07T13:06:37.869Z,3.93
2018-12-07T13:11:41.702Z,4.70
2018-12-07T13:14:10.283Z,4.03
2018-12-07T13:16:38.623Z,3.90
2018-12-07T13:19:07.565Z,5.07
2018-12-07T13:21:35.889Z,5.50
2018-12-07T13:24:04.654Z,4.20
2018-12-07T13:26:33.357Z,5.07
2018-12-07T13:29:01.763Z,4.93
2018-12-07T13:31:30.104Z,3.20
2018-12-07T13:34:01.512Z,5.90
2018-12-07T13:36:29.858Z,2.60
2018-12-07T13:38:59.018Z,3.30
2018-12-07T13:41:30.677Z,4.53
2018-12-07T13:44:00.196Z,4.60
2018-12-07T13:46:28.931Z,3.90
2018-12-07T13:48:58.411Z,3.47
2018-12-07T13:51:27.704Z,2.90
2018-12-07T13:53:56.718Z,2.53
2018-12-07T13:56:25.461Z,2.73
2018-12-07T13:58:54.399Z,2.20
2018-12-07T14:01:23.383Z,3.23
2018-12-07T14:03:52.002Z,2.47
2018-12-07T14:06:21.138Z,4.57
2018-12-07T14:08:49.888Z,3.57
2018-12-07T14:11:18.753Z,4.67
2018-12-07T14:13:47.167Z,3.17
2018-12-07T14:18:50.015Z,2.20
2018-12-07T14:21:18.743Z,4.07
2018-12-07T14:23:47.302Z,3.97
2018-12-07T14:26:16.203Z,2.00
2018-12-07T14:28:44.921Z,2.60
2018-12-07T14:31:13.715Z,3.83
2018-12-07T14:33:42.426Z,3.73
2018-12-07T14:38:45.718Z,2.93
2018-12-07T14:41:14.814Z,4.60
2018-12-07T14:43:43.298Z,3.83
2018-12-07T14:46:12.491Z,5.03
2018-12-07T14:48:41.487Z,5.03
2018-12-07T14:51:10.349Z,3.20
2018-12-07T14:53:39.794Z,4.67
2018-12-07T14:56:08.579Z,3.97
2018-12-07T14:58:36.937Z,4.13
2018-12-07T15:01:05.762Z,4.00
2018-12-07T15:03:37.779Z,3.10
2018-12-07T15:06:15.846Z,5.80
2018-12-07T15:08:44.215Z,7.73
2018-12-07T15:11:12.547Z,10.07
2018-12-07T15:13:41.075Z,6.87
2018-12-07T15:16:09.741Z,3.90
2018-12-07T15:18:38.640Z,2.93
2018-12-07T15:21:07.647Z,6.90
2018-12-07T15:26:11.888Z,10.17
2018-12-07T15:28:40.661Z,12.60
2018-12-07T15:31:09.494Z,13.13
2018-12-07T15:33:38.970Z,17.23
2018-12-07T15:36:07.694Z,14.60
2018-12-07T15:38:42.472Z,13.90
2018-12-07T15:41:12.192Z,12.83
2018-12-07T15:43:40.864Z,13.73
2018-12-07T15:46:13.448Z,10.80
2018-12-07T15:48:42.791Z,8.20
2018-12-07T15:51:11.363Z,13.17
2018-12-07T15:53:41.496Z,14.57
2018-12-07T15:56:10.116Z,11.73
2018-12-07T15:58:38.990Z,14.93
2018-12-07T16:01:07.803Z,9.13
2018-12-07T16:03:37.057Z,7.70
2018-12-07T16:06:10.273Z,7.13
2018-12-07T16:08:40.073Z,10.83
2018-12-07T16:11:08.788Z,14.57
2018-12-07T16:13:37.433Z,9.50
2018-12-07T16:16:06.862Z,14.40
2018-12-07T16:18:35.355Z,13.40
2018-12-07T16:21:04.949Z,10.03
2018-12-07T16:23:34.078Z,12.00
2018-12-07T16:26:03.122Z,18.27
2018-12-07T16:28:31.762Z,13.20
2018-12-07T16:31:00.768Z,18.77
2018-12-07T16:33:29.547Z,16.90
2018-12-07T16:35:58.145Z,13.40
2018-12-07T16:38:31.063Z,18.10
2018-12-07T16:40:59.793Z,14.40
2018-12-07T16:43:28.440Z,13.97
2018-12-07T16:45:57.092Z,14.13
2018-12-07T16:48:45.485Z,15.50
2018-12-07T16:51:13.932Z,15.87
2018-12-07T16:53:42.831Z,12.73
2018-12-07T16:56:12.041Z,19.97
2018-12-07T16:58:40.726Z,20.93
2018-12-07T17:01:09.662Z,17.17
2018-12-07T17:03:38.543Z,19.97
2018-12-07T17:06:07.148Z,13.47
2018-12-07T17:08:35.694Z,21.77
2018-12-07T17:11:04.494Z,13.27
2018-12-07T17:13:43.178Z,16.90
2018-12-07T17:16:11.978Z,20.20
2018-12-07T17:18:40.543Z,11.33
2018-12-07T17:21:10.579Z,10.30
2018-12-07T17:23:39.629Z,13.80
2018-12-07T17:26:08.615Z,21.70
2018-12-07T17:28:37.937Z,13.03
2018-12-07T17:31:06.607Z,10.43
2018-12-07T17:33:35.292Z,14.03
2018-12-07T17:36:04.070Z,17.87
2018-12-07T17:38:33.057Z,16.00
2018-12-07T17:41:01.968Z,13.03
2018-12-07T17:43:30.689Z,16.67
2018-12-07T17:45:59.738Z,13.87
2018-12-07T17:48:28.429Z,16.63
2018-12-07T17:50:57.171Z,14.50
2018-12-07T17:53:31.312Z,17.77
2018-12-07T17:55:59.946Z,17.57
2018-12-07T17:58:28.304Z,16.70
2018-12-07T18:01:00.216Z,17.97
2018-12-07T18:03:28.499Z,18.80
2018-12-07T18:05:56.894Z,20.27
2018-12-07T18:08:25.523Z,17.33
2018-12-07T18:10:54.088Z,19.67
2018-12-07T18:13:22.770Z,17.73
2018-12-07T18:15:56.269Z,18.97
2018-12-07T18:18:29.078Z,11.33
2018-12-07T18:20:57.825Z,12.90
2018-12-07T18:23:27.049Z,7.83
2018-12-07T18:25:55.618Z,6.60
2018-12-07T18:28:24.217Z,6.13
2018-12-07T18:30:53.250Z,9.87
2018-12-07T18:33:23.261Z,13.33
2018-12-07T18:35:56.624Z,7.30
2018-12-07T18:38:25.921Z,12.27
2018-12-07T18:40:55.057Z,10.03
2018-12-07T18:43:24.598Z,12.30
2018-12-07T18:45:56.828Z,14.00
2018-12-07T18:48:25.526Z,14.83
2018-12-07T18:50:54.170Z,12.13
2018-12-07T18:53:22.864Z,15.70
2018-12-07T18:55:51.733Z,16.40
2018-12-07T18:58:26.923Z,17.37
2018-12-07T19:00:55.562Z,17.70
2018-12-07T19:03:24.298Z,19.47
2018-12-07T19:05:54.007Z,13.07
2018-12-07T19:08:23.160Z,22.00
2018-12-07T19:10:51.660Z,11.67
2018-12-07T19:13:20.527Z,11.20
2018-12-07T19:15:58.529Z,13.97
2018-12-07T19:18:28.217Z,12.60
2018-12-07T19:23:38.502Z,17.83
2018-12-07T19:26:07.081Z,18.10
2018-12-07T19:28:39.543Z,7.67
2018-12-07T19:31:08.194Z,17.23
2018-12-07T19:33:36.823Z,15.03
2018-12-07T19:36:09.193Z,12.37
2018-12-07T19:38:49.838Z,27.83
2018-12-07T19:41:22.381Z,9.43
2018-12-07T19:43:52.003Z,15.57
2018-12-07T19:46:21.137Z,7.77
2018-12-07T19:48:50.163Z,11.80
2018-12-07T19:51:18.783Z,20.40
2018-12-07T19:53:48.726Z,15.07
2018-12-07T19:56:17.412Z,10.57
2018-12-07T19:58:46.770Z,15.73
2018-12-07T20:01:15.739Z,8.63
2018-12-07T20:03:47.605Z,13.10
2018-12-07T20:06:17.163Z,8.83
2018-12-07T20:08:46.998Z,12.87
2018-12-07T20:11:15.756Z,8.63
2018-12-07T20:13:44.401Z,9.83
2018-12-07T20:16:13.568Z,13.60
2018-12-07T20:18:42.096Z,13.57
2018-12-07T20:21:12.172Z,8.33
2018-12-07T20:23:41.008Z,7.77
2018-12-07T20:26:09.773Z,7.37
2018-12-07T20:28:38.886Z,8.57
2018-12-07T20:31:07.503Z,9.43
2018-12-07T20:33:39.566Z,11.93
2018-12-07T20:36:09.200Z,10.00
2018-12-07T20:38:47.247Z,10.00
2018-12-07T20:41:15.790Z,10.40
2018-12-07T20:43:47.382Z,12.13
2018-12-07T20:46:16.450Z,12.23
2018-12-07T20:48:45.086Z,6.60
2018-12-07T20:51:22.864Z,10.20
2018-12-07T20:53:54.683Z,11.70
2018-12-07T20:56:26.811Z,10.00
2018-12-07T20:58:55.927Z,12.03
2018-12-07T21:01:25.069Z,16.00
2018-12-07T21:04:24.414Z,12.03
2018-12-07T21:07:09.671Z,13.87
2018-12-07T21:09:38.065Z,10.90
2018-12-07T21:12:16.682Z,10.77
2018-12-07T21:14:48.904Z,9.80
2018-12-07T21:17:22.853Z,10.23
2018-12-07T21:20:04.198Z,9.13
2018-12-07T21:22:36.591Z,8.70
2018-12-07T21:25:05.683Z,8.57
2018-12-07T21:27:34.275Z,9.93
2018-12-07T21:31:02.898Z,11.93
2018-12-07T21:34:43.000Z,9.87
2018-12-07T21:37:11.565Z,10.17
2018-12-07T21:39:48.774Z,10.60
2018-12-07T21:42:18.307Z,12.33
2018-12-07T21:44:48.947Z,10.27
2018-12-07T21:48:53.370Z,10.87
2018-12-07T21:54:16.095Z,14.33
2018-12-07T21:56:44.853Z,10.97
2018-12-07T21:59:13.250Z,10.10
2018-12-07T22:01:42.121Z,11.07
2018-12-07T22:04:11.587Z,7.97
2018-12-07T22:06:40.451Z,11.67
2018-12-07T22:09:09.093Z,8.83
2018-12-07T22:11:48.095Z,12.23
2018-12-07T22:14:16.825Z,13.97
2018-12-07T22:16:45.384Z,11.83
2018-12-07T22:19:13.868Z,10.97
2018-12-07T22:21:42.764Z,15.07
2018-12-07T22:24:11.326Z,11.17
2018-12-07T22:26:40.424Z,14.97
2018-12-07T22:29:09.346Z,10.20
2018-12-07T22:31:38.468Z,8.83
2018-12-07T22:34:07.464Z,12.50
2018-12-07T22:36:36.644Z,10.57
2018-12-07T22:39:08.016Z,9.97
2018-12-07T22:41:37.053Z,10.63
2018-12-07T22:44:06.380Z,11.77
2018-12-07T22:46:34.782Z,8.40
2018-12-07T22:49:03.802Z,11.20
2018-12-07T22:51:36.526Z,12.67
2018-12-07T22:54:04.882Z,9.43
2018-12-07T22:56:33.199Z,10.27
2018-12-07T22:59:01.847Z,10.37
2018-12-07T23:01:30.603Z,11.30
2018-12-07T23:03:58.962Z,7.90
2018-12-07T23:06:27.733Z,9.07
2018-12-07T23:08:56.423Z,13.73
2018-12-07T23:11:26.426Z,11.27
2018-12-07T23:13:54.777Z,12.53
2018-12-07T23:16:23.582Z,11.47
2018-12-07T23:18:51.876Z,14.23
2018-12-07T23:21:20.303Z,13.53
2018-12-07T23:23:48.953Z,14.30
2018-12-07T23:26:26.666Z,11.73
2018-12-07T23:28:57.274Z,5.77
2018-12-07T23:31:25.932Z,8.90
2018-12-07T23:33:54.241Z,12.63
2018-12-07T23:36:22.598Z,7.40
2018-12-07T23:38:50.922Z,13.70
2018-12-07T23:41:19.833Z,10.07
2018-12-07T23:43:48.510Z,13.03
2018-12-07T23:46:17.555Z,11.10
2018-12-07T23:48:46.208Z,13.47
2018-12-07T23:51:14.776Z,10.10
2018-12-07T23:53:49.273Z,10.27
2018-12-07T23:56:17.894Z,15.60
2018-12-07T23:58:46.187Z,14.60
